Time;durP1;ratioP1;P1;durP2;ratioP2;P2;SDS_P1;SDS_P2;PMS_P1;PMS_P2;Temp;Humidity;BMP_temperature;BMP_pressure;BME280_temperature;BME280_humidity;BME280_pressure;Samples;Min_cycle;Max_cycle;Signal;HPM_P1;HPM_P2
2023/02/17 00:02:06;;;;;;;16.10;9.60;;;;;;;0.10;74.28;101565.17;106442;1254;65081;-85
2023/02/17 00:04:36;;;;;;;16.10;10.40;;;;;;;0.10;74.20;101564.66;106671;1254;73756;-85
2023/02/17 00:07:03;;;;;;;18.00;11.40;;;;;;;0.07;74.17;101559.85;106739;1254;60915;-86
2023/02/17 00:09:32;;;;;;;18.10;9.40;;;;;;;0.02;73.96;101553.50;106807;1254;60425;-86
2023/02/17 00:12:00;;;;;;;13.90;8.90;;;;;;;-0.04;73.92;101544.91;106632;1257;75281;-84
2023/02/17 00:14:33;;;;;;;16.40;8.90;;;;;;;-0.08;74.07;101542.85;106724;1254;64929;-84
2023/02/17 00:17:01;;;;;;;13.20;8.70;;;;;;;-0.10;74.17;101541.98;106824;1254;73535;-85
2023/02/17 00:19:28;;;;;;;15.10;9.90;;;;;;;-0.12;74.43;101540.63;106642;1254;60886;-85
2023/02/17 00:21:58;;;;;;;19.30;9.60;;;;;;;-0.11;74.67;101537.36;106934;1254;60536;-85
2023/02/17 00:24:29;;;;;;;15.00;8.40;;;;;;;-0.08;74.51;101541.48;107296;1254;73744;-85
2023/02/17 00:26:56;;;;;;;19.40;10.90;;;;;;;-0.05;74.61;101536.50;109565;1254;63774;-86
2023/02/17 00:29:23;;;;;;;19.20;9.30;;;;;;;-0.00;74.37;101530.12;109150;1254;72627;-85
2023/02/17 00:31:52;;;;;;;15.60;9.90;;;;;;;0.03;74.20;101527.19;108295;1259;60440;-86
2023/02/17 00:34:19;;;;;;;14.70;9.50;;;;;;;0.03;74.23;101525.98;106940;1255;61113;-86
2023/02/17 00:36:49;;;;;;;15.80;9.50;;;;;;;0.03;73.95;101525.48;106853;1255;74712;-86
2023/02/17 00:39:16;;;;;;;13.90;9.10;;;;;;;0.02;74.07;101516.36;106848;1254;64909;-85
2023/02/17 00:41:43;;;;;;;16.20;8.30;;;;;;;0.03;73.90;101512.07;106843;1254;73941;-85
2023/02/17 00:44:22;;;;;;;18.90;9.30;;;;;;;-0.03;73.75;101507.44;106792;1254;61340;-86
2023/02/17 00:46:51;;;;;;;16.60;10.10;;;;;;;-0.06;74.03;101500.75;106788;1267;60536;-86
2023/02/17 00:49:21;;;;;;;21.00;10.40;;;;;;;-0.05;74.46;101491.80;106861;1254;75534;-86
2023/02/17 00:51:48;;;;;;;16.30;10.60;;;;;;;-0.02;74.60;101485.95;106997;1254;65593;-85
2023/02/17 00:54:16;;;;;;;26.30;14.50;;;;;;;0.00;74.42;101482.69;107258;1260;73320;-87
2023/02/17 00:56:43;;;;;;;26.80;15.40;;;;;;;-0.01;74.39;101477.36;107376;1254;60536;-84
2023/02/17 00:59:11;;;;;;;29.80;14.50;;;;;;;-0.04;74.38;101474.79;107118;1254;60479;-84
2023/02/17 01:01:39;;;;;;;21.70;12.70;;;;;;;-0.07;74.38;101469.47;108728;1257;73888;-84
2023/02/17 01:04:13;;;;;;;21.20;12.50;;;;;;;-0.11;74.59;101464.50;108952;1254;63768;-84
2023/02/17 01:06:43;;;;;;;19.90;11.70;;;;;;;-0.17;74.78;101460.89;108559;1253;71054;-83
2023/02/17 01:09:12;;;;;;;20.20;12.30;;;;;;;-0.23;74.82;101460.39;106943;1258;61134;-86
2023/02/17 01:11:39;;;;;;;19.70;11.80;;;;;;;-0.24;74.93;101465.04;106583;1254;60454;-84
2023/02/17 01:14:07;;;;;;;14.90;9.50;;;;;;;-0.24;75.16;101463.65;107590;1254;74976;-83
2023/02/17 01:16:38;;;;;;;15.90;10.00;;;;;;;-0.26;75.21;101459.02;106640;1257;65019;-84
2023/02/17 01:19:07;;;;;;;18.70;10.70;;;;;;;-0.29;75.34;101455.07;106720;1259;73055;-85
2023/02/17 01:21:35;;;;;;;15.40;9.10;;;;;;;-0.28;75.63;101449.91;106950;1254;60479;-83
2023/02/17 01:24:03;;;;;;;14.80;9.70;;;;;;;-0.28;75.45;101444.09;106701;1254;61176;-85
2023/02/17 01:26:32;;;;;;;15.60;9.40;;;;;;;-0.30;75.47;101435.50;106890;1257;73702;-85
2023/02/17 01:29:01;;;;;;;18.90;9.50;;;;;;;-0.37;75.64;101427.59;106595;1260;63800;-85
2023/02/17 01:31:28;;;;;;;17.40;9.40;;;;;;;-0.45;75.54;101420.06;106718;1254;72713;-86
2023/02/17 01:33:56;;;;;;;19.10;11.30;;;;;;;-0.51;76.00;101412.00;106990;1259;60486;-84
2023/02/17 01:36:23;;;;;;;17.00;10.90;;;;;;;-0.58;76.03;101409.77;107005;1254;61329;-86
2023/02/17 01:38:53;;;;;;;17.50;9.90;;;;;;;-0.65;76.20;101405.15;107856;1253;74784;-86
2023/02/17 01:41:22;;;;;;;14.90;8.60;;;;;;;-0.69;76.51;101402.91;107010;1253;63541;-85
2023/02/17 01:44:10;;;;;;;16.10;10.30;;;;;;;-0.73;76.88;101400.52;106741;1259;74122;-84
2023/02/17 01:46:44;;;;;;;21.50;10.10;;;;;;;-0.72;77.24;101399.48;106776;1254;62129;-86
2023/02/17 01:49:35;;;;;;;18.10;11.30;;;;;;;-0.70;77.32;101394.50;107259;1254;60126;-86
2023/02/17 01:52:12;;;;;;;20.80;10.40;;;;;;;-0.69;77.55;101393.46;107095;1253;74472;-86
2023/02/17 01:54:47;;;;;;;16.70;10.20;;;;;;;-0.69;77.57;101387.29;107090;1254;64624;-86
2023/02/17 01:57:17;;;;;;;25.80;12.20;;;;;;;-0.70;77.80;101386.42;107815;1260;73675;-87
2023/02/17 01:59:45;;;;;;;21.30;11.40;;;;;;;-0.68;78.01;101385.40;107063;1253;60424;-85
2023/02/17 02:02:12;;;;;;;21.20;11.70;;;;;;;-0.65;77.85;101382.13;106916;1254;60720;-86
2023/02/17 02:04:42;;;;;;;17.00;11.60;;;;;;;-0.66;77.82;101380.59;106864;1257;74911;-85
2023/02/17 02:07:25;;;;;;;19.70;10.90;;;;;;;-0.67;77.75;101377.52;106954;1254;65034;-87
2023/02/17 02:09:54;;;;;;;21.60;12.70;;;;;;;-0.65;77.73;101371.84;106945;1254;73711;-84
2023/02/17 02:12:24;;;;;;;20.30;11.00;;;;;;;-0.62;78.02;101371.83;107116;1253;62247;-85
2023/02/17 02:14:51;;;;;;;18.00;10.90;;;;;;;-0.58;78.26;101365.80;106969;1254;60481;-85
2023/02/17 02:17:45;;;;;;;19.30;11.10;;;;;;;-0.53;78.19;101370.27;107012;1253;73470;-85
2023/02/17 02:20:32;;;;;;;20.50;10.60;;;;;;;-0.54;78.03;101365.28;106825;1254;63412;-85
2023/02/17 02:23:21;;;;;;;17.40;10.10;;;;;;;-0.55;78.08;101364.95;106965;1257;73654;-87
2023/02/17 02:25:55;;;;;;;19.50;11.30;;;;;;;-0.56;78.11;101357.55;106932;1253;60451;-86
2023/02/17 02:28:56;;;;;;;18.40;11.00;;;;;;;-0.56;78.12;101354.98;107273;1254;60200;-86
2023/02/17 02:31:26;;;;;;;22.80;12.70;;;;;;;-0.59;78.07;101348.98;107010;1254;73794;-86
2023/02/17 02:34:02;;;;;;;22.80;13.70;;;;;;;-0.63;77.90;101345.90;106905;1254;64882;-89
2023/02/17 02:36:39;;;;;;;19.30;11.30;;;;;;;-0.66;77.93;101342.48;106858;1254;72634;-85
2023/02/17 02:39:15;;;;;;;17.80;10.40;;;;;;;-0.67;78.24;101342.31;107991;1255;60861;-85
2023/02/17 02:41:53;;;;;;;20.30;11.70;;;;;;;-0.69;78.16;101339.73;107567;1257;60535;-86
2023/02/17 02:44:20;;;;;;;18.10;11.40;;;;;;;-0.69;78.41;101337.14;107086;1254;73686;-84
2023/02/17 02:47:03;;;;;;;21.50;11.70;;;;;;;-0.69;78.44;101337.14;107029;1254;64701;-88
2023/02/17 02:49:34;;;;;;;21.60;11.20;;;;;;;-0.69;78.65;101332.69;107020;1257;72325;-87
2023/02/17 02:52:40;;;;;;;15.70;10.00;;;;;;;-0.67;78.72;101333.71;106951;1253;60660;-89
2023/02/17 02:55:15;;;;;;;19.90;9.90;;;;;;;-0.66;78.53;101331.65;107034;1253;60444;-86
2023/02/17 02:57:53;;;;;;;14.10;8.90;;;;;;;-0.69;78.49;101327.37;106828;1253;75358;-87
2023/02/17 03:00:59;;;;;;;19.70;10.90;;;;;;;-0.71;78.72;101325.48;106930;1254;62914;-87
2023/02/17 03:03:46;;;;;;;18.40;9.60;;;;;;;-0.78;78.62;101320.01;107000;1254;72645;-88
2023/02/17 03:06:25;;;;;;;21.60;10.50;;;;;;;-0.80;78.70;101316.41;107402;1254;61786;-86
2023/02/17 03:09:06;;;;;;;19.70;10.70;;;;;;;-0.80;78.70;101308.50;106859;1257;61127;-86
2023/02/17 03:11:33;;;;;;;17.10;9.20;;;;;;;-0.80;78.51;101311.77;106756;1257;75092;-86
2023/02/17 03:14:06;;;;;;;16.50;8.60;;;;;;;-0.79;78.76;101308.69;107012;1253;64587;-86
2023/02/17 03:16:35;;;;;;;13.10;8.60;;;;;;;-0.79;78.64;101304.73;106863;1254;73514;-85
2023/02/17 03:19:02;;;;;;;19.30;9.10;;;;;;;-0.80;78.62;101301.64;107720;1253;60438;-87
2023/02/17 03:21:35;;;;;;;19.50;8.90;;;;;;;-0.82;78.67;101297.86;108114;1253;62494;-84
2023/02/17 03:24:03;;;;;;;14.20;8.30;;;;;;;-0.80;78.50;101303.19;108493;1253;73829;-85
2023/02/17 03:26:31;;;;;;;20.80;8.70;;;;;;;-0.80;78.57;101297.18;107411;1253;64296;-87
2023/02/17 03:28:59;;;;;;;14.60;9.20;;;;;;;-0.78;78.41;101293.92;107451;1253;74110;-84
2023/02/17 03:31:26;;;;;;;17.30;9.30;;;;;;;-0.75;78.58;101289.44;107336;1254;60793;-86
2023/02/17 03:33:59;;;;;;;17.50;8.80;;;;;;;-0.72;78.31;101286.34;107003;1258;60299;-85
2023/02/17 03:36:25;;;;;;;16.00;9.30;;;;;;;-0.72;78.33;101286.34;107803;1258;73905;-86
2023/02/17 03:38:53;;;;;;;13.70;8.50;;;;;;;-0.74;78.08;101283.95;107249;1257;63722;-86
2023/02/17 03:41:23;;;;;;;13.70;9.60;;;;;;;-0.73;78.18;101279.65;107054;1253;72586;-85
2023/02/17 03:43:50;;;;;;;14.50;8.50;;;;;;;-0.73;78.26;101279.83;107340;1254;60542;-84
2023/02/17 03:46:17;;;;;;;16.30;7.30;;;;;;;-0.72;78.12;101275.52;107471;1253;60317;-86
2023/02/17 03:48:47;;;;;;;16.00;8.90;;;;;;;-0.75;78.13;101273.98;107219;1254;74988;-89
2023/02/17 03:51:16;;;;;;;14.20;9.10;;;;;;;-0.81;78.14;101268.00;107296;1254;64221;-87
2023/02/17 03:53:50;;;;;;;16.50;9.80;;;;;;;-0.86;78.05;101267.83;107022;1257;72486;-87
2023/02/17 03:56:18;;;;;;;16.30;8.80;;;;;;;-0.90;78.25;101267.67;106899;1254;60537;-86
2023/02/17 03:58:45;;;;;;;14.10;8.80;;;;;;;-0.93;78.21;101264.08;107064;1253;60438;-84
2023/02/17 04:01:16;;;;;;;14.20;8.40;;;;;;;-0.95;78.14;101260.83;107020;1256;73886;-86
2023/02/17 04:03:44;;;;;;;19.80;9.50;;;;;;;-0.94;78.19;101259.80;107297;1254;62713;-85
2023/02/17 04:06:11;;;;;;;18.00;9.40;;;;;;;-0.96;78.25;101256.70;108422;1257;73338;-86
2023/02/17 04:08:38;;;;;;;17.40;9.70;;;;;;;-0.94;78.29;101252.75;106860;1253;59574;-84
2023/02/17 04:11:06;;;;;;;13.70;8.00;;;;;;;-0.93;78.34;101249.14;106820;1253;61079;-86
2023/02/17 04:13:33;;;;;;;17.80;11.40;;;;;;;-0.89;78.35;101252.39;106736;1253;74947;-84
2023/02/17 04:16:07;;;;;;;19.50;10.20;;;;;;;-0.88;78.32;101243.48;106933;1253;64262;-83
2023/02/17 04:18:38;;;;;;;17.60;10.40;;;;;;;-0.85;78.15;101238.14;107052;1253;73909;-84
2023/02/17 04:21:05;;;;;;;14.80;8.60;;;;;;;-0.82;77.96;101234.52;106954;1253;60489;-87
2023/02/17 04:23:34;;;;;;;19.40;10.60;;;;;;;-0.81;77.71;101233.67;106981;1254;61106;-86
2023/02/17 04:26:06;;;;;;;13.20;8.30;;;;;;;-0.83;77.56;101231.95;107011;1253;74491;-86
2023/02/17 04:28:37;;;;;;;20.70;9.10;;;;;;;-0.84;77.43;101225.09;106969;1253;63638;-87
2023/02/17 04:31:04;;;;;;;13.10;8.80;;;;;;;-0.86;77.34;101230.77;107039;1254;72707;-88
2023/02/17 04:33:32;;;;;;;15.10;7.70;;;;;;;-0.88;77.28;101226.65;107293;1253;62057;-86
2023/02/17 04:36:00;;;;;;;15.30;7.10;;;;;;;-0.91;77.42;101220.98;107375;1253;60431;-86
2023/02/17 04:38:28;;;;;;;16.10;7.90;;;;;;;-0.93;77.35;101220.66;107774;1253;74808;-86
2023/02/17 04:40:55;;;;;;;13.10;7.20;;;;;;;-0.91;77.54;101224.08;109597;1253;63773;-85
2023/02/17 04:43:25;;;;;;;18.30;9.30;;;;;;;-0.91;77.33;101214.13;109138;1253;72384;-85
2023/02/17 04:45:52;;;;;;;14.70;7.60;;;;;;;-0.93;77.11;101218.78;107642;1253;60358;-86
2023/02/17 04:48:22;;;;;;;19.30;8.90;;;;;;;-0.94;77.29;101216.88;108627;1253;59971;-86
2023/02/17 04:50:50;;;;;;;13.40;8.80;;;;;;;-0.94;77.19;101209.34;107307;1253;74005;-86
2023/02/17 04:53:17;;;;;;;16.20;8.60;;;;;;;-0.95;77.09;101203.33;107500;1253;62960;-86
2023/02/17 04:55:51;;;;;;;13.40;7.90;;;;;;;-0.93;76.87;101202.46;107166;1257;72557;-87
2023/02/17 04:58:26;;;;;;;16.90;7.20;;;;;;;-0.92;77.04;101204.00;107209;1253;60969;-86
2023/02/17 05:00:55;;;;;;;14.60;7.80;;;;;;;-0.94;77.05;101199.03;107300;1253;61996;-88
2023/02/17 05:03:23;;;;;;;19.00;7.40;;;;;;;-0.93;76.92;101196.30;107313;1256;73783;-87
2023/02/17 05:05:54;;;;;;;15.50;7.80;;;;;;;-0.93;77.08;101195.77;106982;1253;64804;-87
2023/02/17 05:08:21;;;;;;;10.90;6.20;;;;;;;-0.90;77.19;101196.79;107279;1253;72612;-86
2023/02/17 05:10:51;;;;;;;13.50;7.80;;;;;;;-0.85;76.81;101195.23;107064;1253;60518;-86
2023/02/17 05:13:19;;;;;;;15.50;7.00;;;;;;;-0.82;76.69;101194.88;107003;1253;60483;-88
2023/02/17 05:15:49;;;;;;;13.40;6.90;;;;;;;-0.79;76.42;101193.32;106982;1254;74873;-87
2023/02/17 05:18:16;;;;;;;17.40;9.50;;;;;;;-0.79;76.38;101196.75;106807;1259;65005;-85
2023/02/17 05:20:43;;;;;;;12.50;7.00;;;;;;;-0.78;76.22;101193.14;107118;1253;72929;-85
2023/02/17 05:23:11;;;;;;;10.30;6.20;;;;;;;-0.75;75.98;101194.17;107059;1253;61879;-86
2023/02/17 05:25:39;;;;;;;9.40;5.50;;;;;;;-0.72;76.07;101197.07;107029;1253;61633;-87
2023/02/17 05:28:07;;;;;;;14.50;7.10;;;;;;;-0.68;75.84;101191.73;107367;1253;74835;-87
2023/02/17 05:30:34;;;;;;;12.20;6.00;;;;;;;-0.67;75.54;101191.55;108876;1253;63855;-87
2023/02/17 05:33:01;;;;;;;12.80;6.90;;;;;;;-0.65;75.25;101189.13;107704;1254;72199;-87
2023/02/17 05:35:33;;;;;;;12.40;6.70;;;;;;;-0.66;75.14;101193.43;107234;1254;60524;-87
2023/02/17 05:38:03;;;;;;;9.60;6.10;;;;;;;-0.65;75.05;101191.37;107369;1253;61080;-85
2023/02/17 05:40:31;;;;;;;10.50;6.70;;;;;;;-0.64;75.09;101193.61;107243;1254;73736;-86
2023/02/17 05:42:58;;;;;;;14.20;7.10;;;;;;;-0.61;74.76;101190.66;107920;1253;63755;-86
2023/02/17 05:45:26;;;;;;;12.50;6.40;;;;;;;-0.57;74.59;101190.30;107296;1254;72385;-86
2023/02/17 05:47:53;;;;;;;10.90;6.60;;;;;;;-0.53;74.48;101186.16;107654;1253;61043;-86
2023/02/17 05:50:21;;;;;;;8.20;5.20;;;;;;;-0.48;74.17;101190.09;107508;1253;60597;-87
2023/02/17 05:52:49;;;;;;;7.70;5.40;;;;;;;-0.41;73.93;101189.70;107366;1257;73716;-86
2023/02/17 05:55:16;;;;;;;10.10;6.50;;;;;;;-0.33;73.76;101189.15;107553;1254;64668;-87
2023/02/17 05:57:43;;;;;;;13.40;6.60;;;;;;;-0.28;73.41;101186.54;107022;1257;72582;-86
2023/02/17 06:00:12;;;;;;;11.00;6.40;;;;;;;-0.23;73.10;101188.23;107260;1253;60522;-88
2023/02/17 06:02:39;;;;;;;9.50;5.90;;;;;;;-0.15;72.88;101183.89;107262;1253;61361;-88
2023/02/17 06:05:07;;;;;;;11.30;6.60;;;;;;;-0.07;72.59;101182.10;107232;1254;75915;-87
2023/02/17 06:07:35;;;;;;;9.20;6.10;;;;;;;0.03;72.16;101182.20;107910;1254;63430;-89
2023/02/17 06:10:07;;;;;;;9.40;5.80;;;;;;;0.09;71.38;101182.67;107429;1253;73490;-89
2023/02/17 06:12:34;;;;;;;11.30;5.60;;;;;;;0.11;70.76;101185.23;107847;1253;60438;-87
2023/02/17 06:15:03;;;;;;;12.20;5.90;;;;;;;0.11;70.82;101181.45;107936;1254;60840;-87
2023/02/17 06:17:33;;;;;;;9.70;5.50;;;;;;;0.16;70.71;101183.30;107413;1253;73924;-86
2023/02/17 06:20:01;;;;;;;13.80;5.70;;;;;;;0.23;70.52;101180.66;107471;1256;64759;-87
2023/02/17 06:22:30;;;;;;;9.40;5.30;;;;;;;0.31;70.06;101180.61;107598;1256;72975;-87
2023/02/17 06:24:59;;;;;;;11.00;5.40;;;;;;;0.39;69.56;101184.84;107808;1256;61000;-87
2023/02/17 06:27:28;;;;;;;8.40;4.80;;;;;;;0.43;69.26;101183.08;107668;1256;59376;-87
2023/02/17 06:29:56;;;;;;;13.80;6.00;;;;;;;0.47;69.28;101183.05;107799;1256;73836;-87
2023/02/17 06:32:24;;;;;;;10.20;6.50;;;;;;;0.51;68.77;101186.96;107737;1256;64258;-88
2023/02/17 06:34:53;;;;;;;13.60;6.50;;;;;;;0.56;68.72;101183.13;108055;1256;72699;-87
2023/02/17 06:37:21;;;;;;;11.20;6.10;;;;;;;0.61;68.46;101176.20;107579;1259;60331;-85
2023/02/17 06:39:48;;;;;;;9.20;5.70;;;;;;;0.67;68.29;101182.85;108037;1256;60512;-89
2023/02/17 06:42:17;;;;;;;12.40;7.00;;;;;;;0.71;68.04;101179.19;107787;1257;73845;-89
2023/02/17 06:44:48;;;;;;;7.50;4.70;;;;;;;0.73;67.95;101177.80;108003;1256;65208;-91
2023/02/17 06:47:24;;;;;;;8.30;4.90;;;;;;;0.78;67.71;101177.05;108555;1256;73129;-87
2023/02/17 06:49:51;;;;;;;7.90;4.60;;;;;;;0.83;67.73;101172.18;107781;1256;60509;-86
2023/02/17 06:52:33;;;;;;;14.00;5.10;;;;;;;0.94;67.81;101168.45;107951;1253;59573;-87
2023/02/17 06:55:20;;;;;;;8.30;5.30;;;;;;;1.13;67.72;101172.18;108096;1253;75671;-86
2023/02/17 06:57:48;;;;;;;11.00;5.40;;;;;;;1.33;67.57;101168.15;107993;1253;65240;-87
2023/02/17 07:00:16;;;;;;;12.50;5.90;;;;;;;1.52;66.95;101167.89;107588;1253;73710;-88
2023/02/17 07:02:44;;;;;;;11.10;4.40;;;;;;;1.65;66.39;101166.67;107866;1254;61678;-88
2023/02/17 07:05:12;;;;;;;8.70;5.20;;;;;;;1.78;65.90;101166.66;107678;1259;61835;-85
2023/02/17 07:07:41;;;;;;;9.20;5.10;;;;;;;1.87;65.69;101173.08;107723;1259;74346;-87
2023/02/17 07:10:11;;;;;;;9.00;5.00;;;;;;;1.93;65.30;101171.09;107671;1253;63428;-87
2023/02/17 07:12:39;;;;;;;9.10;4.20;;;;;;;1.93;65.16;101169.70;107795;1253;72162;-89
2023/02/17 07:15:08;;;;;;;11.90;6.80;;;;;;;1.95;65.07;101172.09;107690;1260;60540;-88
2023/02/17 07:17:39;;;;;;;9.40;5.70;;;;;;;1.92;65.12;101172.29;107561;1253;60635;-87
2023/02/17 07:20:08;;;;;;;8.30;5.10;;;;;;;1.90;64.91;101169.76;107966;1253;71628;-87
2023/02/17 07:22:38;;;;;;;10.90;5.50;;;;;;;1.85;65.05;101168.95;108272;1253;63876;-87
2023/02/17 07:25:09;;;;;;;8.50;4.70;;;;;;;1.84;65.22;101171.39;108324;1253;72586;-88
2023/02/17 07:27:45;;;;;;;8.40;4.40;;;;;;;1.79;65.12;101172.50;108543;1253;59641;-89
2023/02/17 07:30:13;;;;;;;12.60;5.70;;;;;;;1.76;65.23;101172.55;108781;1253;59945;-87
2023/02/17 07:32:45;;;;;;;7.40;4.60;;;;;;;1.75;65.40;101171.19;109017;1253;73626;-86
2023/02/17 07:35:42;;;;;;;12.40;4.80;;;;;;;1.76;65.44;101172.20;109030;1256;63776;-87
2023/02/17 07:38:15;;;;;;;6.70;4.40;;;;;;;1.76;65.52;101168.41;108964;1253;73515;-87
2023/02/17 07:40:48;;;;;;;13.00;5.40;;;;;;;1.79;65.44;101167.85;108452;1253;59778;-89
2023/02/17 07:43:25;;;;;;;8.70;5.40;;;;;;;1.86;65.68;101162.23;108656;1253;60210;-87
2023/02/17 07:45:59;;;;;;;11.40;5.90;;;;;;;1.96;65.62;101160.17;108335;1254;72766;-89
2023/02/17 07:48:29;;;;;;;10.80;5.80;;;;;;;2.01;65.25;101154.05;108493;1259;63817;-88
2023/02/17 07:51:11;;;;;;;15.00;6.10;;;;;;;2.05;65.12;101155.19;108497;1254;72536;-90
2023/02/17 07:53:53;;;;;;;8.90;4.90;;;;;;;2.10;65.09;101149.10;108158;1254;60542;-90
2023/02/17 07:59:20;;;;;;;9.40;5.40;;;;;;;2.24;65.04;101149.89;105641;1289;615193;-91
2023/02/17 08:02:30;;;;;;;7.60;4.80;;;;;;;2.23;64.71;101149.73;108280;1265;58736;-90
2023/02/17 08:05:05;;;;;;;13.10;5.80;;;;;;;2.18;64.82;101152.59;108095;1266;59210;-89
2023/02/17 08:07:40;;;;;;;8.00;3.70;;;;;;;2.16;64.64;101154.69;108820;1259;73810;-88
2023/02/17 08:14:50;;;;;;;9.60;5.70;;;;;;;1.90;65.22;101145.63;104151;1262;74268;-91
2023/02/17 08:17:47;;;;;;;13.40;5.00;;;;;;;1.84;65.44;101145.35;108605;1264;60314;-90
2023/02/17 08:20:39;;;;;;;11.80;6.00;;;;;;;1.79;65.74;101148.20;108750;1262;71304;-90
2023/02/17 08:23:21;;;;;;;12.60;5.80;;;;;;;1.76;66.19;101141.70;109014;1259;62489;-90
2023/02/17 08:25:51;;;;;;;12.60;6.50;;;;;;;1.77;66.22;101142.17;108936;1260;70665;-89
2023/02/17 08:28:28;;;;;;;10.50;6.00;;;;;;;1.79;66.38;101145.77;109033;1259;59190;-89
2023/02/17 08:31:01;;;;;;;11.50;5.80;;;;;;;1.82;66.39;101148.14;108995;1260;60888;-90
2023/02/17 08:34:06;;;;;;;9.90;5.00;;;;;;;1.83;66.14;101145.73;108970;1250;72584;-87
2023/02/17 08:37:01;;;;;;;7.70;4.30;;;;;;;1.82;66.35;101148.50;109407;1254;63824;-88
2023/02/17 08:39:58;;;;;;;9.30;5.50;;;;;;;1.81;66.49;101147.48;109302;1254;71958;-89
2023/02/17 08:43:11;;;;;;;10.50;5.60;;;;;;;1.83;66.65;101148.30;109469;1252;60088;-91
2023/02/17 08:46:46;;;;;;;11.70;5.40;;;;;;;1.87;66.63;101149.97;108238;1254;59002;-91
2023/02/17 08:51:05;;;;;;;9.10;4.60;;;;;;;1.88;66.62;101145.83;108289;1267;72728;-90
2023/02/17 08:53:49;;;;;;;9.40;5.60;;;;;;;1.85;66.79;101150.68;107048;1273;62565;-89
2023/02/17 08:56:22;;;;;;;14.80;5.50;;;;;;;1.84;67.16;101149.48;106302;1275;74339;-87
2023/02/17 08:58:51;;;;;;;14.40;7.10;;;;;;;1.90;67.29;101147.34;106446;1275;60689;-88
2023/02/17 09:01:29;;;;;;;13.30;6.10;;;;;;;1.98;67.16;101143.08;106301;1277;59987;-88
2023/02/17 09:03:58;;;;;;;10.40;6.10;;;;;;;2.06;67.14;101142.77;106643;1276;73234;-87
2023/02/17 09:06:44;;;;;;;9.20;5.90;;;;;;;2.10;66.99;101143.75;107271;1276;63873;-88
2023/02/17 09:09:14;;;;;;;9.30;6.20;;;;;;;2.10;66.90;101140.98;106615;1275;73477;-86
2023/02/17 09:11:45;;;;;;;10.90;7.00;;;;;;;2.13;67.04;101140.76;106936;1276;60754;-87
2023/02/17 09:14:13;;;;;;;9.10;5.70;;;;;;;2.16;67.05;101140.37;106714;1277;61252;-88
2023/02/17 09:16:41;;;;;;;15.00;6.80;;;;;;;2.20;67.21;101139.09;106758;1275;74894;-87
2023/02/17 09:19:09;;;;;;;9.60;5.60;;;;;;;2.24;66.92;101144.71;107405;1271;63650;-89
2023/02/17 09:30:00;;;;;;;7.00;4.20;;;;;;;2.19;67.06;101133.41;108744;1259;59426;-87
2023/02/17 09:32:30;;;;;;;11.00;5.00;;;;;;;2.24;67.25;101134.87;108816;1259;71734;-86
2023/02/17 09:35:01;;;;;;;14.80;6.50;;;;;;;2.30;67.17;101137.55;108118;1263;63738;-88
2023/02/17 09:37:29;;;;;;;6.70;4.60;;;;;;;2.33;66.84;101133.51;106981;1259;73468;-86
2023/02/17 09:39:57;;;;;;;10.70;5.20;;;;;;;2.35;66.97;101131.59;106986;1259;59931;-87
2023/02/17 09:42:25;;;;;;;9.90;5.60;;;;;;;2.39;66.88;101125.29;107311;1259;60256;-87
2023/02/17 09:45:04;;;;;;;10.40;5.60;;;;;;;2.43;66.73;101122.48;107558;1259;73551;-88
2023/02/17 09:47:37;;;;;;;9.10;5.70;;;;;;;2.47;66.58;101117.73;107928;1256;65534;-85
2023/02/17 09:50:13;;;;;;;9.80;5.50;;;;;;;2.51;66.52;101114.55;108144;1256;73226;-86
2023/02/17 09:52:55;;;;;;;8.50;5.60;;;;;;;2.51;66.18;101107.65;108262;1256;60556;-85
2023/02/17 09:55:43;;;;;;;13.20;5.90;;;;;;;2.46;66.22;101105.14;108695;1256;60249;-87
2023/02/17 09:58:21;;;;;;;11.30;6.10;;;;;;;2.42;66.17;101109.20;109111;1256;72866;-86
2023/02/17 10:00:54;;;;;;;17.10;7.60;;;;;;;2.34;66.27;101106.23;108662;1256;62796;-86
2023/02/17 10:03:40;;;;;;;22.40;7.00;;;;;;;2.28;66.68;101103.60;107544;1256;73063;-87
2023/02/17 10:06:39;;;;;;;13.90;8.70;;;;;;;2.29;66.79;101100.98;107769;1263;59411;-89
2023/02/17 10:09:10;;;;;;;14.60;6.30;;;;;;;2.28;66.78;101097.02;107915;1256;61983;-87
2023/02/17 10:15:15;;;;;;;10.90;5.70;;;;;;;2.24;66.92;101103.14;107519;1257;65092;-88
2023/02/17 10:17:50;;;;;;;8.80;5.00;;;;;;;2.21;67.21;101101.47;107339;1256;72617;-86
2023/02/17 10:20:45;;;;;;;11.60;5.10;;;;;;;2.20;67.46;101097.17;107275;1256;59481;-85
2023/02/17 10:23:21;;;;;;;10.50;4.60;;;;;;;2.20;67.29;101094.42;106810;1265;61565;-88
2023/02/17 10:26:12;;;;;;;13.80;5.30;;;;;;;2.19;67.48;101096.85;107062;1265;74009;-87
2023/02/17 10:28:56;;;;;;;11.80;4.90;;;;;;;2.20;67.73;101095.80;107316;1265;63595;-89
2023/02/17 10:31:44;;;;;;;13.40;5.00;;;;;;;2.21;67.63;101094.91;108067;1265;72806;-87
2023/02/17 10:34:46;;;;;;;9.10;6.00;;;;;;;2.18;67.70;101088.59;107308;1265;59321;-88
2023/02/17 10:37:24;;;;;;;10.70;5.10;;;;;;;2.14;67.96;101085.72;107332;1265;60219;-88
2023/02/17 10:39:57;;;;;;;12.00;7.10;;;;;;;2.18;68.13;101076.85;107019;1265;73943;-85
2023/02/17 10:42:38;;;;;;;11.50;7.00;;;;;;;2.21;68.18;101074.73;107242;1265;64091;-89
2023/02/17 10:45:30;;;;;;;16.50;8.10;;;;;;;2.22;67.99;101070.92;106922;1265;71815;-88
2023/02/17 10:48:13;;;;;;;22.40;8.90;;;;;;;2.22;68.30;101070.59;107104;1265;60519;-87
2023/02/17 10:50:41;;;;;;;9.70;5.50;;;;;;;2.25;68.27;101072.23;106820;1265;61531;-88
2023/02/17 10:53:25;;;;;;;21.30;6.50;;;;;;;2.24;68.25;101073.13;106568;1265;72884;-89
2023/02/17 10:56:08;;;;;;;11.00;5.60;;;;;;;2.23;68.55;101072.45;106949;1265;65178;-88
2023/02/17 10:58:59;;;;;;;25.20;8.90;;;;;;;2.21;68.60;101070.59;106908;1265;73703;-89
2023/02/17 11:01:27;;;;;;;13.20;6.30;;;;;;;2.17;68.87;101064.80;107189;1256;60297;-88
2023/02/17 11:04:00;;;;;;;12.50;6.90;;;;;;;2.16;68.98;101063.80;107331;1256;61234;-89
2023/02/17 11:06:29;;;;;;;15.10;6.30;;;;;;;2.19;69.31;101064.08;107120;1256;74364;-88
2023/02/17 11:09:03;;;;;;;10.50;6.30;;;;;;;2.23;69.36;101061.41;107319;1262;64717;-87
2023/02/17 11:11:33;;;;;;;11.00;6.80;;;;;;;2.24;69.31;101061.20;107404;1256;72998;-89
2023/02/17 11:14:04;;;;;;;15.80;7.70;;;;;;;2.24;69.27;101052.95;108410;1256;60262;-87
2023/02/17 11:16:34;;;;;;;14.20;6.40;;;;;;;2.28;69.28;101049.42;107741;1256;60272;-86
2023/02/17 11:19:04;;;;;;;12.00;5.90;;;;;;;2.29;69.34;101049.41;107072;1256;73831;-88
2023/02/17 11:21:32;;;;;;;14.80;6.50;;;;;;;2.27;69.32;101047.02;107092;1264;65220;-88
2023/02/17 11:24:09;;;;;;;13.00;5.70;;;;;;;2.25;69.48;101047.40;107071;1256;72590;-88
2023/02/17 11:26:40;;;;;;;13.60;5.70;;;;;;;2.21;69.60;101048.69;107171;1263;60772;-88
2023/02/17 11:29:35;;;;;;;12.50;6.90;;;;;;;2.17;69.82;101047.37;107579;1256;60358;-87
2023/02/17 11:32:07;;;;;;;13.90;7.80;;;;;;;2.17;70.01;101045.48;106744;1264;73527;-88
2023/02/17 11:34:37;;;;;;;11.10;6.80;;;;;;;2.23;70.19;101045.20;107163;1264;63836;-88
2023/02/17 11:37:18;;;;;;;13.40;5.40;;;;;;;2.31;70.10;101046.95;107843;1264;73212;-87
2023/02/17 11:40:27;;;;;;;12.40;5.80;;;;;;;2.38;70.08;101045.45;108018;1264;61088;-87
2023/02/17 11:43:58;;;;;;;13.50;6.00;;;;;;;2.43;70.09;101046.89;108683;1251;60323;31
2023/02/17 11:46:46;;;;;;;15.70;7.00;;;;;;;2.49;70.20;101045.92;108077;1260;72896;-89
2023/02/17 11:49:58;;;;;;;7.90;4.00;;;;;;;2.59;70.05;101045.55;108069;1261;64888;-91
2023/02/17 11:53:11;;;;;;;12.20;4.80;;;;;;;2.61;69.49;101043.77;106990;1269;72808;-87
2023/02/17 11:55:48;;;;;;;16.40;6.90;;;;;;;2.56;69.72;101039.90;106282;1273;59912;-88
2023/02/17 11:58:49;;;;;;;20.80;7.60;;;;;;;2.57;69.65;101040.75;106399;1277;60364;-88
2023/02/17 12:01:48;;;;;;;12.50;6.30;;;;;;;2.48;69.92;101047.66;106391;1273;73975;-88
2023/02/17 12:04:49;;;;;;;15.80;6.10;;;;;;;2.36;70.32;101048.08;107552;1278;65030;-89
2023/02/17 12:07:46;;;;;;;18.50;7.10;;;;;;;2.26;70.84;101047.39;106862;1276;73825;-87
2023/02/17 12:10:30;;;;;;;20.20;9.50;;;;;;;2.24;71.06;101048.29;106165;1281;61230;-89